createdAt,value
2018-05-17T00:00:17.580Z,10.90
2018-05-17T00:02:45.079Z,10.90
2018-05-17T00:05:12.589Z,10.90
2018-05-17T00:07:40.126Z,10.90
2018-05-17T00:10:07.684Z,10.90
2018-05-17T00:12:35.220Z,10.90
2018-05-17T00:15:02.700Z,10.90
2018-05-17T00:17:30.219Z,10.90
2018-05-17T00:19:58.481Z,11.10
2018-05-17T00:22:26.744Z,11.10
2018-05-17T00:24:54.270Z,11.10
2018-05-17T00:27:22.528Z,11.10
2018-05-17T00:29:50.012Z,11.10
2018-05-17T00:32:17.536Z,11.10
2018-05-17T00:34:45.015Z,11.10
2018-05-17T00:37:12.511Z,11.10
2018-05-17T00:39:40.032Z,11.10
2018-05-17T00:42:07.543Z,11.10
2018-05-17T00:44:35.853Z,11.10
2018-05-17T00:47:03.381Z,11.10
2018-05-17T00:49:31.694Z,11.00
2018-05-17T00:51:59.191Z,11.00
2018-05-17T00:54:26.685Z,11.00
2018-05-17T00:56:54.189Z,11.00
2018-05-17T00:59:21.704Z,11.00
2018-05-17T01:01:49.199Z,11.00
2018-05-17T01:04:16.696Z,11.00
2018-05-17T01:06:44.963Z,11.10
2018-05-17T01:09:13.288Z,11.10
2018-05-17T01:11:40.766Z,11.00
2018-05-17T01:14:08.286Z,11.10
2018-05-17T01:16:35.785Z,11.00
2018-05-17T01:19:03.547Z,11.10
2018-05-17T01:21:31.038Z,11.00
2018-05-17T01:23:59.344Z,11.00
2018-05-17T01:26:26.815Z,11.00
2018-05-17T01:28:54.325Z,10.90
2018-05-17T01:31:21.856Z,11.00
2018-05-17T01:33:49.394Z,11.00
2018-05-17T01:36:16.866Z,11.00
2018-05-17T01:38:44.376Z,11.00
2018-05-17T01:41:11.855Z,11.00
2018-05-17T01:43:39.351Z,11.00
2018-05-17T01:46:06.889Z,11.00
2018-05-17T01:48:34.421Z,11.00
2018-05-17T01:51:01.903Z,11.10
2018-05-17T01:53:29.479Z,11.10
2018-05-17T01:55:57.014Z,11.10
2018-05-17T01:58:24.562Z,11.20
2018-05-17T02:00:52.051Z,11.20
2018-05-17T02:03:19.597Z,11.20
2018-05-17T02:05:47.134Z,11.20
2018-05-17T02:08:14.638Z,11.20
2018-05-17T02:10:42.142Z,11.20
2018-05-17T02:13:09.700Z,11.20
2018-05-17T02:15:37.182Z,11.30
2018-05-17T02:18:04.711Z,11.30
2018-05-17T02:20:32.267Z,11.30
2018-05-17T02:22:59.800Z,11.40
2018-05-17T02:25:27.336Z,11.40
2018-05-17T02:27:54.859Z,11.40
2018-05-17T02:30:22.452Z,11.40
2018-05-17T02:32:49.981Z,11.40
2018-05-17T02:35:17.561Z,11.40
2018-05-17T02:37:45.035Z,11.40
2018-05-17T02:40:12.591Z,11.40
2018-05-17T02:42:40.083Z,11.40
2018-05-17T02:45:08.346Z,11.40
2018-05-17T02:47:36.608Z,11.50
2018-05-17T02:50:04.135Z,11.50
2018-05-17T02:52:31.673Z,11.50
2018-05-17T02:54:59.221Z,11.50
2018-05-17T02:57:26.778Z,11.50
2018-05-17T02:59:54.300Z,11.60
2018-05-17T03:02:21.837Z,11.70
2018-05-17T03:04:49.390Z,11.70
2018-05-17T03:07:16.889Z,11.70
2018-05-17T03:09:45.155Z,11.80
2018-05-17T03:12:12.667Z,11.80
2018-05-17T03:14:40.163Z,11.80
2018-05-17T03:17:07.694Z,11.80
2018-05-17T03:19:35.190Z,11.80
2018-05-17T03:22:03.445Z,11.80
2018-05-17T03:24:30.951Z,11.80
2018-05-17T03:26:58.458Z,11.90
2018-05-17T03:29:25.956Z,11.90
2018-05-17T03:31:54.215Z,11.90
2018-05-17T03:34:21.784Z,12.00
2018-05-17T03:36:50.050Z,12.00
2018-05-17T03:39:18.322Z,12.00
2018-05-17T03:41:45.810Z,12.00
2018-05-17T03:44:13.290Z,12.00
2018-05-17T03:46:40.789Z,12.00
2018-05-17T03:49:09.096Z,12.00
2018-05-17T03:51:36.586Z,12.00
2018-05-17T03:54:04.095Z,12.00
2018-05-17T03:56:32.345Z,12.10
2018-05-17T03:58:59.840Z,12.10
2018-05-17T04:01:39.910Z,12.10
2018-05-17T04:04:19.300Z,12.10
2018-05-17T04:06:46.815Z,12.10
2018-05-17T04:09:14.290Z,12.20
2018-05-17T04:11:41.850Z,12.20
2018-05-17T04:14:09.372Z,12.20
2018-05-17T04:16:36.904Z,12.30
2018-05-17T04:19:05.177Z,12.40
2018-05-17T04:21:33.431Z,12.30
2018-05-17T04:24:00.952Z,12.30
2018-05-17T04:26:28.434Z,12.30
2018-05-17T04:28:55.945Z,12.40
2018-05-17T04:31:23.520Z,12.30
2018-05-17T04:33:51.034Z,12.30
2018-05-17T04:36:18.537Z,12.30
2018-05-17T04:38:46.059Z,12.40
2018-05-17T04:41:14.349Z,12.40
2018-05-17T04:43:42.629Z,12.40
2018-05-17T04:46:10.935Z,12.50
2018-05-17T04:48:38.464Z,12.50
2018-05-17T04:51:05.961Z,12.50
2018-05-17T04:53:33.467Z,12.50
2018-05-17T04:56:01.731Z,12.60
2018-05-17T04:58:29.203Z,12.50
2018-05-17T05:00:57.508Z,12.60
2018-05-17T05:03:25.020Z,12.60
2018-05-17T05:05:52.526Z,12.60
2018-05-17T05:08:20.004Z,12.50
2018-05-17T05:10:47.520Z,12.50
2018-05-17T05:13:15.800Z,12.60
2018-05-17T05:15:43.298Z,12.50
2018-05-17T05:18:10.803Z,12.60
2018-05-17T05:20:39.120Z,12.50
2018-05-17T05:23:06.623Z,12.50
2018-05-17T05:25:34.098Z,12.30
2018-05-17T05:28:01.612Z,12.30
2018-05-17T05:30:29.139Z,12.30
2018-05-17T05:32:56.626Z,12.30
2018-05-17T05:35:24.124Z,12.30
2018-05-17T05:37:52.379Z,12.20
2018-05-17T05:40:19.889Z,12.10
2018-05-17T05:42:47.370Z,12.10
2018-05-17T05:45:14.855Z,12.10
2018-05-17T05:47:42.342Z,12.10
2018-05-17T05:50:09.809Z,12.10
2018-05-17T05:52:37.315Z,12.00
2018-05-17T05:55:04.786Z,12.00
2018-05-17T05:57:33.033Z,12.00
2018-05-17T06:00:00.543Z,12.00
2018-05-17T06:02:28.106Z,12.00
2018-05-17T06:04:55.540Z,12.00
2018-05-17T06:07:23.786Z,12.00
2018-05-17T06:09:51.304Z,11.90
2018-05-17T06:12:18.786Z,12.00
2018-05-17T06:14:46.274Z,12.00
2018-05-17T06:17:13.765Z,12.10
2018-05-17T06:19:41.325Z,11.90
2018-05-17T06:22:08.823Z,11.90
2018-05-17T06:24:36.331Z,11.90
2018-05-17T06:27:04.618Z,12.00
2018-05-17T06:29:32.128Z,12.00
2018-05-17T06:31:59.630Z,11.90
2018-05-17T06:34:27.098Z,11.90
2018-05-17T06:36:54.578Z,12.00
2018-05-17T06:39:22.104Z,12.00
2018-05-17T06:41:49.606Z,12.00
2018-05-17T06:44:17.136Z,12.00
2018-05-17T06:46:44.634Z,12.00
2018-05-17T06:49:12.111Z,12.00
2018-05-17T06:51:40.377Z,12.00
2018-05-17T06:54:07.908Z,11.90
2018-05-17T06:56:35.394Z,11.90
2018-05-17T06:59:02.911Z,11.80
2018-05-17T07:01:30.386Z,11.90
2018-05-17T07:03:57.929Z,11.80
2018-05-17T07:06:25.444Z,11.80
2018-05-17T07:08:53.716Z,11.90
2018-05-17T07:11:21.966Z,12.00
2018-05-17T07:13:49.465Z,12.00
2018-05-17T07:16:16.945Z,12.00
2018-05-17T07:18:44.628Z,12.10
2018-05-17T07:21:11.975Z,12.20
2018-05-17T07:23:39.474Z,12.30
2018-05-17T07:26:07.718Z,12.20
2018-05-17T07:28:35.214Z,12.20
2018-05-17T07:31:03.501Z,12.10
2018-05-17T07:33:30.987Z,12.00
2018-05-17T07:35:58.516Z,12.00
2018-05-17T07:38:26.040Z,12.00
2018-05-17T07:40:53.560Z,11.90
2018-05-17T07:43:21.112Z,11.90
2018-05-17T07:45:48.596Z,12.00
2018-05-17T07:48:16.090Z,12.00
2018-05-17T07:50:44.368Z,12.10
2018-05-17T07:53:12.643Z,12.10
2018-05-17T07:55:41.017Z,12.10
2018-05-17T07:58:08.461Z,12.10
2018-05-17T08:00:36.053Z,12.10
2018-05-17T08:03:03.538Z,12.10
2018-05-17T08:05:31.056Z,12.10
2018-05-17T08:07:59.315Z,12.00
2018-05-17T08:10:27.566Z,12.10
2018-05-17T08:12:55.052Z,12.10
2018-05-17T08:15:23.322Z,12.20
2018-05-17T08:17:50.861Z,12.10
2018-05-17T08:20:18.412Z,12.10
2018-05-17T08:22:45.941Z,12.10
2018-05-17T08:25:13.485Z,12.20
2018-05-17T08:27:40.971Z,12.20
2018-05-17T08:30:08.478Z,12.30
2018-05-17T08:32:35.970Z,12.40
2018-05-17T08:35:03.534Z,12.40
2018-05-17T08:37:31.014Z,12.70
2018-05-17T08:39:58.552Z,12.80
2018-05-17T08:42:26.048Z,12.90
2018-05-17T08:44:53.557Z,12.80
2018-05-17T08:47:21.076Z,12.70
2018-05-17T08:49:49.329Z,12.40
2018-05-17T08:52:16.810Z,12.40
2018-05-17T08:54:44.291Z,12.40
2018-05-17T08:57:11.805Z,12.40
2018-05-17T08:59:39.310Z,12.40
2018-05-17T09:02:06.779Z,12.40
2018-05-17T09:04:34.268Z,12.40
2018-05-17T09:07:01.800Z,12.30
2018-05-17T09:09:29.315Z,12.30
2018-05-17T09:11:56.825Z,12.30
2018-05-17T09:14:24.339Z,12.20
2018-05-17T09:16:52.586Z,12.20
2018-05-17T09:19:20.116Z,12.20
2018-05-17T09:21:47.589Z,12.20
2018-05-17T09:24:15.109Z,12.00
2018-05-17T09:26:42.574Z,12.20
2018-05-17T09:29:10.177Z,12.30
2018-05-17T09:31:37.624Z,12.70
2018-05-17T09:34:05.117Z,12.80
2018-05-17T09:36:33.400Z,12.60
2018-05-17T09:39:00.956Z,12.60
2018-05-17T09:41:29.347Z,12.60
2018-05-17T09:43:56.809Z,12.60
2018-05-17T09:46:24.354Z,12.50
2018-05-17T09:48:52.589Z,12.80
2018-05-17T09:51:20.096Z,12.80
2018-05-17T09:53:47.577Z,13.00
2018-05-17T09:56:15.091Z,12.90
2018-05-17T09:58:43.335Z,12.40
2018-05-17T10:01:10.868Z,12.40
2018-05-17T10:03:38.380Z,12.30
2018-05-17T10:06:06.706Z,12.30
2018-05-17T10:08:34.263Z,12.20
2018-05-17T10:11:01.924Z,12.20
2018-05-17T10:13:29.440Z,12.10
2018-05-17T10:15:56.984Z,12.20
2018-05-17T10:18:24.537Z,12.20
2018-05-17T10:20:52.111Z,12.10
2018-05-17T10:23:20.380Z,12.30
2018-05-17T10:25:47.882Z,12.30
2018-05-17T10:28:15.369Z,12.40
2018-05-17T10:30:42.911Z,12.30
2018-05-17T10:33:10.380Z,12.50
2018-05-17T10:35:37.998Z,12.60
2018-05-17T10:38:05.478Z,12.80
2018-05-17T10:40:36.807Z,12.80
2018-05-17T10:43:04.291Z,12.80
2018-05-17T10:45:31.968Z,12.80
2018-05-17T10:47:59.450Z,13.10
2018-05-17T10:50:26.945Z,13.40
2018-05-17T10:52:54.463Z,14.00
2018-05-17T10:55:22.196Z,13.90
2018-05-17T10:57:49.666Z,13.90
2018-05-17T11:00:17.204Z,13.50
2018-05-17T11:02:44.679Z,13.50
2018-05-17T11:05:12.207Z,13.40
2018-05-17T11:07:43.367Z,13.20
2018-05-17T11:10:10.887Z,13.50
2018-05-17T11:12:38.366Z,13.80
2018-05-17T11:15:05.985Z,14.10
2018-05-17T11:17:33.528Z,14.40
2018-05-17T11:20:01.036Z,14.50
2018-05-17T11:22:28.523Z,14.20
2018-05-17T11:24:56.060Z,14.10
2018-05-17T11:27:23.609Z,13.90
2018-05-17T11:29:51.132Z,13.60
2018-05-17T11:32:19.436Z,13.60
2018-05-17T11:34:46.957Z,13.60
2018-05-17T11:37:14.494Z,13.80
2018-05-17T11:39:42.008Z,13.70
2018-05-17T11:42:09.552Z,13.60
2018-05-17T11:44:37.886Z,13.40
2018-05-17T11:47:05.428Z,13.30
2018-05-17T11:49:32.956Z,13.30
2018-05-17T11:52:00.438Z,13.10
2018-05-17T11:54:27.927Z,13.10
2018-05-17T11:56:55.460Z,13.20
2018-05-17T11:59:23.012Z,13.40
2018-05-17T12:01:50.518Z,13.70
2018-05-17T12:04:18.041Z,14.00
2018-05-17T12:06:45.564Z,14.00
2018-05-17T12:09:13.063Z,13.80
2018-05-17T12:11:40.580Z,13.80
2018-05-17T12:14:08.124Z,13.80
2018-05-17T12:16:35.604Z,13.60
2018-05-17T12:19:03.083Z,13.50
2018-05-17T12:21:30.596Z,13.60
2018-05-17T12:23:58.846Z,14.00
2018-05-17T12:26:26.397Z,14.00
2018-05-17T12:28:53.911Z,14.20
2018-05-17T12:31:21.542Z,14.00
2018-05-17T12:33:49.702Z,14.10
2018-05-17T12:36:17.207Z,14.10
2018-05-17T12:38:44.731Z,14.40
2018-05-17T12:41:13.019Z,14.90
2018-05-17T12:43:41.258Z,15.30
2018-05-17T12:46:08.801Z,15.20
2018-05-17T12:48:36.321Z,15.50
2018-05-17T12:51:03.835Z,15.30
2018-05-17T12:53:31.364Z,15.30
2018-05-17T12:55:58.885Z,15.20
2018-05-17T12:58:26.425Z,15.40
2018-05-17T13:00:53.928Z,15.60
2018-05-17T13:03:21.459Z,15.50
2018-05-17T13:05:49.731Z,15.30
2018-05-17T13:08:18.028Z,15.40
2018-05-17T13:10:45.545Z,15.40
2018-05-17T13:13:13.041Z,15.80
2018-05-17T13:15:40.526Z,15.90
2018-05-17T13:18:08.834Z,16.10
2018-05-17T13:20:36.305Z,16.10
2018-05-17T13:23:04.550Z,16.20
2018-05-17T13:25:32.032Z,16.20
2018-05-17T13:28:00.323Z,16.30
2018-05-17T13:30:28.571Z,15.90
2018-05-17T13:32:56.064Z,15.90
2018-05-17T13:35:23.574Z,16.20
2018-05-17T13:37:51.067Z,16.50
2018-05-17T13:40:19.366Z,16.70
2018-05-17T13:42:46.893Z,16.70
2018-05-17T13:45:15.177Z,16.90
2018-05-17T13:47:43.543Z,17.00
2018-05-17T13:50:11.722Z,16.80
2018-05-17T13:52:40.243Z,17.10
2018-05-17T13:55:07.763Z,17.10
2018-05-17T13:57:36.079Z,17.30
2018-05-17T14:00:03.597Z,17.20
2018-05-17T14:02:31.952Z,16.60
2018-05-17T14:04:59.459Z,16.60
2018-05-17T14:07:26.966Z,16.60
2018-05-17T14:09:54.476Z,16.80
2018-05-17T14:12:22.008Z,16.90
2018-05-17T14:14:50.318Z,17.00
2018-05-17T14:17:17.842Z,17.00
2018-05-17T14:19:46.094Z,16.80
2018-05-17T14:22:13.613Z,16.80
2018-05-17T14:24:41.154Z,17.00
2018-05-17T14:27:08.675Z,16.90
2018-05-17T14:29:36.188Z,17.10
2018-05-17T14:32:03.670Z,17.00
2018-05-17T14:34:31.165Z,17.00
2018-05-17T14:36:59.466Z,17.00
2018-05-17T14:39:26.988Z,17.00
2018-05-17T14:41:54.496Z,16.90
2018-05-17T14:44:22.032Z,16.80
2018-05-17T14:46:49.517Z,16.70
2018-05-17T14:49:17.025Z,16.90
2018-05-17T14:51:45.343Z,17.00
2018-05-17T14:54:12.887Z,17.00
2018-05-17T14:56:40.376Z,17.00
2018-05-17T14:59:07.924Z,17.10
2018-05-17T15:01:35.409Z,17.10
2018-05-17T15:04:02.949Z,17.20
2018-05-17T15:06:30.472Z,17.20
2018-05-17T15:08:58.021Z,17.30
2018-05-17T15:11:26.289Z,17.10
2018-05-17T15:13:53.833Z,17.10
2018-05-17T15:16:21.293Z,17.10
2018-05-17T15:18:48.786Z,17.10
2018-05-17T15:21:16.318Z,16.90
2018-05-17T15:23:44.573Z,16.80
2018-05-17T15:26:12.043Z,16.80
2018-05-17T15:28:40.340Z,16.90
2018-05-17T15:31:07.826Z,16.90
2018-05-17T15:33:35.336Z,16.70
2018-05-17T15:36:03.583Z,16.70
2018-05-17T15:38:31.073Z,16.70
2018-05-17T15:40:59.360Z,16.70
2018-05-17T15:43:27.673Z,16.50
2018-05-17T15:45:55.200Z,16.50
2018-05-17T15:48:23.495Z,16.30
2018-05-17T15:50:50.977Z,16.30
2018-05-17T15:53:18.572Z,16.40
2018-05-17T15:55:46.062Z,16.30
2018-05-17T15:58:13.572Z,16.40
2018-05-17T16:00:41.153Z,16.40
2018-05-17T16:03:09.401Z,16.60
2018-05-17T16:05:36.890Z,16.60
2018-05-17T16:08:05.173Z,16.20
2018-05-17T16:10:33.690Z,16.20
2018-05-17T16:13:02.003Z,16.00
2018-05-17T16:15:29.698Z,16.10
2018-05-17T16:17:56.983Z,16.00
2018-05-17T16:20:24.474Z,16.00
2018-05-17T16:22:51.957Z,16.10
2018-05-17T16:25:20.278Z,16.10
2018-05-17T16:27:47.843Z,16.10
2018-05-17T16:30:15.568Z,16.20
2018-05-17T16:32:43.066Z,16.10
2018-05-17T16:35:10.600Z,16.20
2018-05-17T16:37:38.111Z,16.10
2018-05-17T16:40:05.632Z,15.90
2018-05-17T16:42:33.256Z,15.90
2018-05-17T16:45:00.798Z,15.80
2018-05-17T16:47:29.146Z,15.70
2018-05-17T16:49:56.663Z,15.70
2018-05-17T16:52:24.178Z,15.70
2018-05-17T16:54:51.716Z,15.60
2018-05-17T16:57:19.235Z,15.60
2018-05-17T16:59:46.714Z,15.50
2018-05-17T17:02:14.219Z,15.40
2018-05-17T17:04:41.796Z,15.30
2018-05-17T17:07:09.230Z,15.20
2018-05-17T17:09:37.545Z,15.10
2018-05-17T17:12:05.034Z,15.10
2018-05-17T17:14:32.539Z,15.00
2018-05-17T17:17:00.812Z,15.10
2018-05-17T17:19:29.124Z,15.00
2018-05-17T17:21:56.591Z,15.00
2018-05-17T17:24:24.236Z,15.00
2018-05-17T17:26:51.840Z,15.10
2018-05-17T17:29:19.372Z,15.10
2018-05-17T17:31:46.886Z,15.00
2018-05-17T17:34:14.506Z,15.00
2018-05-17T17:36:42.039Z,14.90
2018-05-17T17:39:09.572Z,14.80
2018-05-17T17:41:37.121Z,14.70
2018-05-17T17:44:04.670Z,14.60
2018-05-17T17:46:32.979Z,14.30
2018-05-17T17:49:00.524Z,14.30
2018-05-17T17:51:28.066Z,14.20
2018-05-17T17:53:56.334Z,14.10
2018-05-17T17:56:23.856Z,14.10
2018-05-17T17:58:51.379Z,14.00
2018-05-17T18:01:19.070Z,13.90
2018-05-17T18:03:46.571Z,13.80
2018-05-17T18:06:14.108Z,13.80
2018-05-17T18:08:41.633Z,13.70
2018-05-17T18:11:09.154Z,13.70
2018-05-17T18:13:37.388Z,13.60
2018-05-17T18:16:04.904Z,13.60
2018-05-17T18:18:33.256Z,13.50
2018-05-17T18:21:00.768Z,13.50
2018-05-17T18:23:28.231Z,13.40
2018-05-17T18:25:55.715Z,13.30
2018-05-17T18:28:23.983Z,13.10
2018-05-17T18:30:51.482Z,13.10
2018-05-17T18:33:18.995Z,13.00
2018-05-17T18:35:46.467Z,12.90
2018-05-17T18:38:13.953Z,12.80
2018-05-17T18:40:41.452Z,12.70
2018-05-17T18:43:09.001Z,12.60
2018-05-17T18:45:36.490Z,12.50
2018-05-17T18:48:04.017Z,12.40
2018-05-17T18:50:31.499Z,12.40
2018-05-17T18:52:59.035Z,12.30
2018-05-17T18:55:26.564Z,12.20
2018-05-17T18:57:54.089Z,12.20
2018-05-17T19:00:21.568Z,12.00
2018-05-17T19:02:49.946Z,12.00
2018-05-17T19:05:17.362Z,12.00
2018-05-17T19:07:44.891Z,11.90
2018-05-17T19:10:13.126Z,11.70
2018-05-17T19:12:40.663Z,11.70
2018-05-17T19:15:08.171Z,11.50
2018-05-17T19:17:36.414Z,11.40
2018-05-17T19:20:03.933Z,11.30
2018-05-17T19:22:31.464Z,11.30
2018-05-17T19:24:59.702Z,11.10
2018-05-17T19:27:27.186Z,11.10
2018-05-17T19:29:55.438Z,11.10
2018-05-17T19:32:22.966Z,11.00
2018-05-17T19:34:50.435Z,11.00
2018-05-17T19:37:17.962Z,10.90
2018-05-17T19:39:45.394Z,10.90
2018-05-17T19:42:13.649Z,10.80
2018-05-17T19:44:41.126Z,10.80
2018-05-17T19:47:09.377Z,10.60
2018-05-17T19:49:36.860Z,10.60
2018-05-17T19:52:04.362Z,10.60
2018-05-17T19:54:31.873Z,10.50
2018-05-17T19:56:59.413Z,10.50
2018-05-17T19:59:26.997Z,10.50
2018-05-17T20:01:54.424Z,10.50
2018-05-17T20:04:23.407Z,10.40
2018-05-17T20:06:50.919Z,10.40
2018-05-17T20:09:18.398Z,10.40
2018-05-17T20:11:45.866Z,10.40
2018-05-17T20:14:13.355Z,10.40
2018-05-17T20:16:40.927Z,10.40
2018-05-17T20:19:08.442Z,10.30
2018-05-17T20:21:35.968Z,10.30
2018-05-17T20:24:03.492Z,10.30
2018-05-17T20:26:30.974Z,10.30
2018-05-17T20:28:59.342Z,10.30
2018-05-17T20:31:26.793Z,10.30
2018-05-17T20:33:54.311Z,10.30
2018-05-17T20:36:21.783Z,10.30
2018-05-17T20:38:49.312Z,10.30
2018-05-17T20:41:16.797Z,10.20
2018-05-17T20:43:44.320Z,10.30
2018-05-17T20:46:11.789Z,10.30
2018-05-17T20:48:39.300Z,10.30
2018-05-17T20:51:07.595Z,10.20
2018-05-17T20:53:35.128Z,10.10
2018-05-17T20:56:03.436Z,10.20
2018-05-17T20:58:30.980Z,10.10
2018-05-17T21:00:59.212Z,10.10
2018-05-17T21:03:26.710Z,10.10
2018-05-17T21:05:54.979Z,10.00
2018-05-17T21:08:23.284Z,10.00
2018-05-17T21:10:50.762Z,10.00
2018-05-17T21:13:18.296Z,10.00
2018-05-17T21:15:45.831Z,10.00
2018-05-17T21:18:14.088Z,9.80
2018-05-17T21:20:41.597Z,9.80
2018-05-17T21:23:09.113Z,9.80
2018-05-17T21:25:36.601Z,9.70
2018-05-17T21:28:04.141Z,9.60
2018-05-17T21:30:32.385Z,9.60
2018-05-17T21:32:59.854Z,9.60
2018-05-17T21:35:28.147Z,9.50
2018-05-17T21:37:56.437Z,9.50
2018-05-17T21:40:23.918Z,9.50
2018-05-17T21:42:51.436Z,9.50
2018-05-17T21:45:19.683Z,9.50
2018-05-17T21:47:47.196Z,9.40
2018-05-17T21:50:14.688Z,9.40
2018-05-17T21:52:42.228Z,9.40
2018-05-17T21:55:09.749Z,9.40
2018-05-17T21:57:38.028Z,9.20
2018-05-17T22:00:06.277Z,9.10
2018-05-17T22:02:33.795Z,9.10
2018-05-17T22:05:01.283Z,9.00
2018-05-17T22:07:28.804Z,9.00
2018-05-17T22:09:57.015Z,9.00
2018-05-17T22:12:24.485Z,9.00
2018-05-17T22:14:52.006Z,9.00
2018-05-17T22:17:19.509Z,8.90
2018-05-17T22:19:47.022Z,8.80
2018-05-17T22:22:14.532Z,8.70
2018-05-17T22:24:42.810Z,8.50
2018-05-17T22:27:11.045Z,8.40
2018-05-17T22:29:38.597Z,8.30
2018-05-17T22:32:06.883Z,8.30
2018-05-17T22:34:34.412Z,8.30
2018-05-17T22:37:01.899Z,8.30
2018-05-17T22:39:29.409Z,8.30
2018-05-17T22:41:56.882Z,8.30
2018-05-17T22:44:24.350Z,8.20
2018-05-17T22:46:51.827Z,8.20
2018-05-17T22:49:19.311Z,8.20
2018-05-17T22:51:47.638Z,8.30
2018-05-17T22:54:15.830Z,8.30
2018-05-17T22:56:55.270Z,8.20
2018-05-17T22:59:22.747Z,8.20
2018-05-17T23:01:50.236Z,8.30
2018-05-17T23:04:17.722Z,8.30
2018-05-17T23:06:45.239Z,8.40
2018-05-17T23:09:13.471Z,8.30
2018-05-17T23:11:41.004Z,8.30
2018-05-17T23:14:08.499Z,8.20
2018-05-17T23:16:35.979Z,8.30
2018-05-17T23:19:04.211Z,8.40
2018-05-17T23:21:31.732Z,8.30
2018-05-17T23:23:59.240Z,8.40
2018-05-17T23:26:26.745Z,8.40
2018-05-17T23:28:54.260Z,8.40
2018-05-17T23:31:21.752Z,8.40
2018-05-17T23:33:50.033Z,8.30
2018-05-17T23:36:17.519Z,8.30
2018-05-17T23:38:44.994Z,8.30
2018-05-17T23:41:24.370Z,8.30
2018-05-17T23:43:52.626Z,8.30
2018-05-17T23:46:20.107Z,8.30
2018-05-17T23:48:48.376Z,8.40
2018-05-17T23:51:16.614Z,8.40
2018-05-17T23:53:44.124Z,8.30
2018-05-17T23:56:12.387Z,8.30
2018-05-17T23:58:40.676Z,8.20
